sensor_id;sensor_type;location;lat;lon;timestamp;pressure;altitude;pressure_sealevel;temperature;humidity
9717;BME280;4897;43.570;27.832;2023-03-03T00:01:12;99426.50;;;5.86;100.00
9717;BME280;4897;43.570;27.832;2023-03-03T00:03:39;99431.81;;;5.86;100.00
9717;BME280;4897;43.570;27.832;2023-03-03T00:06:10;99430.28;;;5.82;100.00
9717;BME280;4897;43.570;27.832;2023-03-03T00:08:37;99420.22;;;5.73;100.00
9717;BME280;4897;43.570;27.832;2023-03-03T00:11:04;99420.03;;;5.76;100.00
9717;BME280;4897;43.570;27.832;2023-03-03T00:13:40;99429.72;;;5.91;100.00
9717;BME280;4897;43.570;27.832;2023-03-03T00:16:13;99410.59;;;5.86;100.00
9717;BME280;4897;43.570;27.832;2023-03-03T00:18:41;99416.47;;;6.05;100.00
9717;BME280;4897;43.570;27.832;2023-03-03T00:21:25;99407.75;;;6.03;100.00
9717;BME280;4897;43.570;27.832;2023-03-03T00:26:39;99409.34;;;5.91;100.00
9717;BME280;4897;43.570;27.832;2023-03-03T00:29:27;99399.97;;;5.86;100.00
9717;BME280;4897;43.570;27.832;2023-03-03T00:32:00;99399.31;;;5.96;100.00
9717;BME280;4897;43.570;27.832;2023-03-03T00:34:35;99367.38;;;5.84;100.00
9717;BME280;4897;43.570;27.832;2023-03-03T00:37:22;99395.50;;;6.14;100.00
9717;BME280;4897;43.570;27.832;2023-03-03T00:39:51;99381.25;;;6.15;100.00
9717;BME280;4897;43.570;27.832;2023-03-03T00:42:18;99384.03;;;6.14;100.00
9717;BME280;4897;43.570;27.832;2023-03-03T00:44:45;99379.19;;;6.20;100.00
9717;BME280;4897;43.570;27.832;2023-03-03T00:47:25;99378.31;;;6.20;100.00
9717;BME280;4897;43.570;27.832;2023-03-03T00:49:53;99369.06;;;6.13;100.00
9717;BME280;4897;43.570;27.832;2023-03-03T00:52:26;99369.19;;;6.24;100.00
9717;BME280;4897;43.570;27.832;2023-03-03T00:54:54;99364.75;;;6.24;100.00
9717;BME280;4897;43.570;27.832;2023-03-03T00:57:21;99354.72;;;6.15;100.00
9717;BME280;4897;43.570;27.832;2023-03-03T00:59:47;99391.22;;;6.12;100.00
9717;BME280;4897;43.570;27.832;2023-03-03T01:02:15;99318.63;;;5.99;100.00
9717;BME280;4897;43.570;27.832;2023-03-03T01:04:43;99365.78;;;6.22;100.00
9717;BME280;4897;43.570;27.832;2023-03-03T01:07:14;99356.59;;;6.13;100.00
9717;BME280;4897;43.570;27.832;2023-03-03T01:09:42;99352.16;;;6.14;100.00
9717;BME280;4897;43.570;27.832;2023-03-03T01:12:09;99323.28;;;5.95;100.00
9717;BME280;4897;43.570;27.832;2023-03-03T01:14:37;99366.41;;;6.13;100.00
9717;BME280;4897;43.570;27.832;2023-03-03T01:17:05;99356.63;;;5.99;100.00
9717;BME280;4897;43.570;27.832;2023-03-03T01:19:32;99365.06;;;6.06;100.00
9717;BME280;4897;43.570;27.832;2023-03-03T01:21:59;99355.97;;;6.10;100.00
9717;BME280;4897;43.570;27.832;2023-03-03T01:24:26;99353.59;;;6.05;100.00
9717;BME280;4897;43.570;27.832;2023-03-03T01:26:54;99354.66;;;6.03;100.00
9717;BME280;4897;43.570;27.832;2023-03-03T01:29:21;99342.72;;;5.96;100.00
9717;BME280;4897;43.570;27.832;2023-03-03T01:31:48;99338.16;;;5.98;100.00
9717;BME280;4897;43.570;27.832;2023-03-03T01:34:15;99321.28;;;5.99;100.00
9717;BME280;4897;43.570;27.832;2023-03-03T01:36:42;99337.59;;;6.07;100.00
9717;BME280;4897;43.570;27.832;2023-03-03T01:39:09;99334.72;;;6.10;100.00
9717;BME280;4897;43.570;27.832;2023-03-03T01:41:36;99317.78;;;5.98;100.00
9717;BME280;4897;43.570;27.832;2023-03-03T01:44:05;99307.66;;;5.91;100.00
9717;BME280;4897;43.570;27.832;2023-03-03T01:46:41;99331.81;;;6.00;100.00
9717;BME280;4897;43.570;27.832;2023-03-03T01:49:13;99320.16;;;5.89;100.00
9717;BME280;4897;43.570;27.832;2023-03-03T01:51:46;99311.81;;;5.81;100.00
9717;BME280;4897;43.570;27.832;2023-03-03T01:54:17;99329.72;;;5.91;100.00
9717;BME280;4897;43.570;27.832;2023-03-03T01:56:45;99329.63;;;5.93;100.00
9717;BME280;4897;43.570;27.832;2023-03-03T01:59:17;99305.47;;;5.83;100.00
9717;BME280;4897;43.570;27.832;2023-03-03T02:01:46;99310.69;;;5.85;100.00
9717;BME280;4897;43.570;27.832;2023-03-03T02:04:14;99316.47;;;5.77;100.00
9717;BME280;4897;43.570;27.832;2023-03-03T02:06:45;99296.84;;;5.65;100.00
9717;BME280;4897;43.570;27.832;2023-03-03T02:09:21;99301.00;;;5.69;100.00
9717;BME280;4897;43.570;27.832;2023-03-03T02:11:54;99291.91;;;5.59;100.00
9717;BME280;4897;43.570;27.832;2023-03-03T02:14:24;99294.94;;;5.67;100.00
9717;BME280;4897;43.570;27.832;2023-03-03T02:16:51;99304.78;;;5.65;100.00
9717;BME280;4897;43.570;27.832;2023-03-03T02:19:23;99306.22;;;5.57;100.00
9717;BME280;4897;43.570;27.832;2023-03-03T02:21:53;99299.09;;;5.72;100.00
9717;BME280;4897;43.570;27.832;2023-03-03T02:24:24;99298.84;;;5.62;100.00
9717;BME280;4897;43.570;27.832;2023-03-03T02:26:54;99295.53;;;5.58;100.00
9717;BME280;4897;43.570;27.832;2023-03-03T02:29:21;99280.84;;;5.53;100.00
9717;BME280;4897;43.570;27.832;2023-03-03T02:31:48;99304.03;;;5.63;100.00
9717;BME280;4897;43.570;27.832;2023-03-03T02:34:15;99303.41;;;5.60;100.00
9717;BME280;4897;43.570;27.832;2023-03-03T02:36:42;99292.19;;;5.55;100.00
9717;BME280;4897;43.570;27.832;2023-03-03T02:39:11;99274.78;;;5.51;100.00
9717;BME280;4897;43.570;27.832;2023-03-03T02:41:42;99288.72;;;5.54;100.00
9717;BME280;4897;43.570;27.832;2023-03-03T02:44:13;99279.31;;;5.49;100.00
9717;BME280;4897;43.570;27.832;2023-03-03T02:46:42;99289.66;;;5.53;100.00
9717;BME280;4897;43.570;27.832;2023-03-03T02:49:11;99296.09;;;5.63;100.00
9717;BME280;4897;43.570;27.832;2023-03-03T02:51:39;99295.81;;;5.54;100.00
9717;BME280;4897;43.570;27.832;2023-03-03T02:54:07;99281.97;;;5.49;100.00
9717;BME280;4897;43.570;27.832;2023-03-03T02:56:34;99302.34;;;5.62;100.00
9717;BME280;4897;43.570;27.832;2023-03-03T02:59:01;99305.56;;;5.67;100.00
9717;BME280;4897;43.570;27.832;2023-03-03T03:01:30;99283.31;;;5.56;100.00
9717;BME280;4897;43.570;27.832;2023-03-03T03:04:02;99215.16;;;5.16;100.00
9717;BME280;4897;43.570;27.832;2023-03-03T03:06:29;99299.13;;;5.57;100.00
9717;BME280;4897;43.570;27.832;2023-03-03T03:08:56;99298.34;;;5.69;100.00
9717;BME280;4897;43.570;27.832;2023-03-03T03:11:23;99287.56;;;5.73;100.00
9717;BME280;4897;43.570;27.832;2023-03-03T03:13:50;99277.13;;;5.69;100.00
9717;BME280;4897;43.570;27.832;2023-03-03T03:16:17;99280.34;;;5.75;100.00
9717;BME280;4897;43.570;27.832;2023-03-03T03:18:45;99284.41;;;5.80;100.00
9717;BME280;4897;43.570;27.832;2023-03-03T03:21:12;99280.47;;;5.87;100.00
9717;BME280;4897;43.570;27.832;2023-03-03T03:23:39;99282.63;;;5.95;100.00
9717;BME280;4897;43.570;27.832;2023-03-03T03:26:07;99283.66;;;5.78;100.00
9717;BME280;4897;43.570;27.832;2023-03-03T03:28:34;99236.06;;;5.48;100.00
9717;BME280;4897;43.570;27.832;2023-03-03T03:31:01;99292.47;;;5.79;100.00
9717;BME280;4897;43.570;27.832;2023-03-03T03:33:28;99294.78;;;5.85;100.00
9717;BME280;4897;43.570;27.832;2023-03-03T03:35:58;99285.28;;;5.66;100.00
9717;BME280;4897;43.570;27.832;2023-03-03T03:38:25;99289.47;;;5.71;100.00
9717;BME280;4897;43.570;27.832;2023-03-03T03:40:52;99288.88;;;5.65;100.00
9717;BME280;4897;43.570;27.832;2023-03-03T03:43:19;99292.69;;;5.61;100.00
9717;BME280;4897;43.570;27.832;2023-03-03T03:45:46;99291.53;;;5.65;100.00
9717;BME280;4897;43.570;27.832;2023-03-03T03:48:13;99283.69;;;5.64;100.00
9717;BME280;4897;43.570;27.832;2023-03-03T03:50:41;99279.41;;;5.61;100.00
9717;BME280;4897;43.570;27.832;2023-03-03T03:53:09;99272.03;;;5.66;100.00
9717;BME280;4897;43.570;27.832;2023-03-03T03:55:36;99273.72;;;5.67;100.00
9717;BME280;4897;43.570;27.832;2023-03-03T03:58:03;99290.88;;;5.62;100.00
9717;BME280;4897;43.570;27.832;2023-03-03T04:00:29;99280.28;;;5.62;100.00
9717;BME280;4897;43.570;27.832;2023-03-03T04:02:56;99282.94;;;5.62;100.00
9717;BME280;4897;43.570;27.832;2023-03-03T04:05:25;99276.31;;;5.69;100.00
9717;BME280;4897;43.570;27.832;2023-03-03T04:07:51;99285.31;;;5.52;100.00
9717;BME280;4897;43.570;27.832;2023-03-03T04:10:20;99285.84;;;5.57;100.00
9717;BME280;4897;43.570;27.832;2023-03-03T04:12:46;99268.25;;;5.42;100.00
9717;BME280;4897;43.570;27.832;2023-03-03T04:15:13;99281.53;;;5.56;100.00
9717;BME280;4897;43.570;27.832;2023-03-03T04:17:41;99273.53;;;5.42;100.00
9717;BME280;4897;43.570;27.832;2023-03-03T04:20:12;99279.81;;;5.55;100.00
9717;BME280;4897;43.570;27.832;2023-03-03T04:22:39;99274.31;;;5.58;100.00
9717;BME280;4897;43.570;27.832;2023-03-03T04:25:07;99267.88;;;5.48;100.00
9717;BME280;4897;43.570;27.832;2023-03-03T04:27:36;99273.94;;;5.64;100.00
9717;BME280;4897;43.570;27.832;2023-03-03T04:30:04;99275.06;;;5.60;100.00
9717;BME280;4897;43.570;27.832;2023-03-03T04:32:32;99273.94;;;5.64;100.00
9717;BME280;4897;43.570;27.832;2023-03-03T04:34:59;99270.69;;;5.59;100.00
9717;BME280;4897;43.570;27.832;2023-03-03T04:37:26;99269.66;;;5.62;100.00
9717;BME280;4897;43.570;27.832;2023-03-03T04:39:56;99251.97;;;5.48;100.00
9717;BME280;4897;43.570;27.832;2023-03-03T04:42:23;99270.91;;;5.56;100.00
9717;BME280;4897;43.570;27.832;2023-03-03T04:44:53;99280.84;;;5.67;100.00
9717;BME280;4897;43.570;27.832;2023-03-03T04:47:20;99276.94;;;5.73;100.00
9717;BME280;4897;43.570;27.832;2023-03-03T04:49:47;99270.50;;;5.77;100.00
9717;BME280;4897;43.570;27.832;2023-03-03T04:52:14;99278.84;;;5.71;100.00
9717;BME280;4897;43.570;27.832;2023-03-03T04:54:41;99240.78;;;5.57;100.00
9717;BME280;4897;43.570;27.832;2023-03-03T04:57:08;99273.53;;;5.71;100.00
9717;BME280;4897;43.570;27.832;2023-03-03T04:59:35;99266.91;;;5.63;100.00
9717;BME280;4897;43.570;27.832;2023-03-03T05:02:03;99265.00;;;5.65;100.00
9717;BME280;4897;43.570;27.832;2023-03-03T05:04:30;99245.53;;;5.52;100.00
9717;BME280;4897;43.570;27.832;2023-03-03T05:06:57;99227.94;;;5.37;100.00
9717;BME280;4897;43.570;27.832;2023-03-03T05:09:24;99264.25;;;5.63;100.00
9717;BME280;4897;43.570;27.832;2023-03-03T05:11:51;99269.78;;;5.60;100.00
9717;BME280;4897;43.570;27.832;2023-03-03T05:14:18;99205.97;;;5.21;100.00
9717;BME280;4897;43.570;27.832;2023-03-03T05:16:45;99269.28;;;5.54;100.00
9717;BME280;4897;43.570;27.832;2023-03-03T05:19:13;99269.16;;;5.69;100.00
9717;BME280;4897;43.570;27.832;2023-03-03T05:21:40;99238.22;;;5.56;100.00
9717;BME280;4897;43.570;27.832;2023-03-03T05:24:08;99262.34;;;5.80;100.00
9717;BME280;4897;43.570;27.832;2023-03-03T05:26:35;99242.81;;;5.81;100.00
9717;BME280;4897;43.570;27.832;2023-03-03T05:29:02;99247.38;;;5.79;100.00
9717;BME280;4897;43.570;27.832;2023-03-03T05:31:29;99267.31;;;5.86;100.00
9717;BME280;4897;43.570;27.832;2023-03-03T05:33:56;99273.81;;;5.94;100.00
9717;BME280;4897;43.570;27.832;2023-03-03T05:36:24;99268.59;;;5.93;100.00
9717;BME280;4897;43.570;27.832;2023-03-03T05:38:53;99273.88;;;6.07;100.00
9717;BME280;4897;43.570;27.832;2023-03-03T05:41:20;99273.22;;;6.03;100.00
9717;BME280;4897;43.570;27.832;2023-03-03T05:43:47;99267.59;;;6.08;100.00
9717;BME280;4897;43.570;27.832;2023-03-03T05:46:14;99270.97;;;6.24;100.00
9717;BME280;4897;43.570;27.832;2023-03-03T05:48:41;99238.97;;;6.13;100.00
9717;BME280;4897;43.570;27.832;2023-03-03T05:51:08;99268.88;;;6.29;100.00
9717;BME280;4897;43.570;27.832;2023-03-03T05:53:36;99274.63;;;6.35;100.00
9717;BME280;4897;43.570;27.832;2023-03-03T05:56:04;99283.81;;;6.44;100.00
9717;BME280;4897;43.570;27.832;2023-03-03T05:58:31;99279.03;;;6.49;100.00
9717;BME280;4897;43.570;27.832;2023-03-03T06:00:58;99278.22;;;6.61;100.00
9717;BME280;4897;43.570;27.832;2023-03-03T06:03:24;99287.66;;;6.53;100.00
9717;BME280;4897;43.570;27.832;2023-03-03T06:05:52;99280.47;;;6.40;100.00
9717;BME280;4897;43.570;27.832;2023-03-03T06:08:19;99272.84;;;6.36;100.00
9717;BME280;4897;43.570;27.832;2023-03-03T06:10:47;99282.22;;;6.54;100.00
9717;BME280;4897;43.570;27.832;2023-03-03T06:13:14;99280.22;;;6.58;100.00
9717;BME280;4897;43.570;27.832;2023-03-03T06:15:41;99266.28;;;6.54;100.00
9717;BME280;4897;43.570;27.832;2023-03-03T06:18:08;99281.00;;;6.72;100.00
9717;BME280;4897;43.570;27.832;2023-03-03T06:20:35;99280.72;;;6.50;100.00
9717;BME280;4897;43.570;27.832;2023-03-03T06:23:03;99282.06;;;6.82;100.00
9717;BME280;4897;43.570;27.832;2023-03-03T06:25:30;99283.19;;;6.92;100.00
9717;BME280;4897;43.570;27.832;2023-03-03T06:28:01;99284.25;;;7.02;100.00
9717;BME280;4897;43.570;27.832;2023-03-03T06:30:28;99279.25;;;7.10;100.00
9717;BME280;4897;43.570;27.832;2023-03-03T06:32:55;99278.41;;;7.22;100.00
9717;BME280;4897;43.570;27.832;2023-03-03T06:35:23;99281.28;;;7.19;100.00
9717;BME280;4897;43.570;27.832;2023-03-03T06:37:50;99271.28;;;7.23;100.00
9717;BME280;4897;43.570;27.832;2023-03-03T06:40:17;99281.47;;;7.42;100.00
9717;BME280;4897;43.570;27.832;2023-03-03T06:42:43;99242.34;;;7.18;100.00
9717;BME280;4897;43.570;27.832;2023-03-03T06:45:12;99273.19;;;7.34;100.00
9717;BME280;4897;43.570;27.832;2023-03-03T06:47:39;99273.38;;;7.31;100.00
9717;BME280;4897;43.570;27.832;2023-03-03T06:50:08;99280.00;;;7.38;100.00
9717;BME280;4897;43.570;27.832;2023-03-03T06:52:35;99272.97;;;7.37;100.00
9717;BME280;4897;43.570;27.832;2023-03-03T06:55:10;99281.47;;;7.29;100.00
9717;BME280;4897;43.570;27.832;2023-03-03T06:57:37;99277.66;;;7.33;100.00
9717;BME280;4897;43.570;27.832;2023-03-03T07:00:18;99275.97;;;7.45;100.00
9717;BME280;4897;43.570;27.832;2023-03-03T07:02:46;99270.22;;;7.38;100.00
9717;BME280;4897;43.570;27.832;2023-03-03T07:05:15;99255.50;;;7.33;100.00
9717;BME280;4897;43.570;27.832;2023-03-03T07:07:43;99273.63;;;7.28;100.00
9717;BME280;4897;43.570;27.832;2023-03-03T07:10:22;99268.06;;;7.31;100.00
9717;BME280;4897;43.570;27.832;2023-03-03T07:12:49;99267.63;;;7.24;100.00
9717;BME280;4897;43.570;27.832;2023-03-03T07:15:20;99264.91;;;7.38;100.00
9717;BME280;4897;43.570;27.832;2023-03-03T07:17:49;99262.09;;;7.52;100.00
9717;BME280;4897;43.570;27.832;2023-03-03T07:20:20;99205.97;;;7.06;100.00
9717;BME280;4897;43.570;27.832;2023-03-03T07:22:47;99270.59;;;7.57;100.00
9717;BME280;4897;43.570;27.832;2023-03-03T07:25:21;99273.59;;;7.53;100.00
9717;BME280;4897;43.570;27.832;2023-03-03T07:27:52;99254.88;;;7.54;100.00
9717;BME280;4897;43.570;27.832;2023-03-03T07:30:26;99265.19;;;7.59;100.00
9717;BME280;4897;43.570;27.832;2023-03-03T07:32:55;99257.66;;;7.40;100.00
9717;BME280;4897;43.570;27.832;2023-03-03T07:35:38;99268.50;;;7.50;100.00
9717;BME280;4897;43.570;27.832;2023-03-03T07:38:30;99261.25;;;7.52;100.00
9717;BME280;4897;43.570;27.832;2023-03-03T07:41:03;99257.41;;;7.56;100.00
9717;BME280;4897;43.570;27.832;2023-03-03T07:43:34;99263.47;;;7.58;100.00
9717;BME280;4897;43.570;27.832;2023-03-03T07:46:17;99240.19;;;7.49;100.00
9717;BME280;4897;43.570;27.832;2023-03-03T07:48:47;99242.00;;;7.48;100.00
9717;BME280;4897;43.570;27.832;2023-03-03T07:51:18;99253.75;;;7.82;100.00
9717;BME280;4897;43.570;27.832;2023-03-03T07:53:47;99240.56;;;7.68;100.00
9717;BME280;4897;43.570;27.832;2023-03-03T07:56:21;99251.66;;;7.98;100.00
9717;BME280;4897;43.570;27.832;2023-03-03T07:58:50;99235.78;;;8.09;100.00
9717;BME280;4897;43.570;27.832;2023-03-03T08:01:36;99239.91;;;8.13;100.00
9717;BME280;4897;43.570;27.832;2023-03-03T08:04:19;99242.31;;;8.16;100.00
9717;BME280;4897;43.570;27.832;2023-03-03T08:06:52;99244.66;;;8.21;100.00
9717;BME280;4897;43.570;27.832;2023-03-03T08:09:40;99226.50;;;8.38;100.00
9717;BME280;4897;43.570;27.832;2023-03-03T08:12:39;99234.22;;;8.65;100.00
9717;BME280;4897;43.570;27.832;2023-03-03T08:15:22;99231.22;;;8.69;100.00
9717;BME280;4897;43.570;27.832;2023-03-03T08:17:52;99226.63;;;8.71;100.00
9717;BME280;4897;43.570;27.832;2023-03-03T08:20:40;99233.69;;;8.83;100.00
9717;BME280;4897;43.570;27.832;2023-03-03T08:23:08;99230.75;;;8.86;100.00
9717;BME280;4897;43.570;27.832;2023-03-03T08:25:35;99203.38;;;8.84;100.00
9717;BME280;4897;43.570;27.832;2023-03-03T08:28:02;99229.63;;;9.13;100.00
9717;BME280;4897;43.570;27.832;2023-03-03T08:30:29;99231.19;;;9.26;100.00
9717;BME280;4897;43.570;27.832;2023-03-03T08:32:57;99219.44;;;9.18;100.00
9717;BME280;4897;43.570;27.832;2023-03-03T08:35:25;99223.94;;;9.39;100.00
9717;BME280;4897;43.570;27.832;2023-03-03T08:37:52;99226.47;;;9.30;100.00
9717;BME280;4897;43.570;27.832;2023-03-03T08:40:19;99215.66;;;9.20;100.00
9717;BME280;4897;43.570;27.832;2023-03-03T08:42:46;99207.44;;;9.23;100.00
9717;BME280;4897;43.570;27.832;2023-03-03T08:45:13;99213.38;;;9.27;100.00
9717;BME280;4897;43.570;27.832;2023-03-03T08:47:40;99165.84;;;8.99;100.00
9717;BME280;4897;43.570;27.832;2023-03-03T08:50:11;99210.94;;;9.35;100.00
9717;BME280;4897;43.570;27.832;2023-03-03T08:52:38;99225.00;;;9.70;100.00
9717;BME280;4897;43.570;27.832;2023-03-03T08:55:06;99186.31;;;9.53;100.00
9717;BME280;4897;43.570;27.832;2023-03-03T08:57:33;99203.91;;;9.67;100.00
9717;BME280;4897;43.570;27.832;2023-03-03T09:00:00;99191.88;;;9.73;100.00
9717;BME280;4897;43.570;27.832;2023-03-03T09:02:27;99224.72;;;10.17;100.00
9717;BME280;4897;43.570;27.832;2023-03-03T09:04:54;99183.75;;;10.28;100.00
9717;BME280;4897;43.570;27.832;2023-03-03T09:07:22;99200.81;;;10.89;100.00
9717;BME280;4897;43.570;27.832;2023-03-03T09:09:49;99215.09;;;10.99;100.00
9717;BME280;4897;43.570;27.832;2023-03-03T09:12:26;99215.94;;;10.79;100.00
9717;BME280;4897;43.570;27.832;2023-03-03T09:14:57;99212.91;;;10.52;100.00
9717;BME280;4897;43.570;27.832;2023-03-03T09:17:29;99215.88;;;10.69;100.00
9717;BME280;4897;43.570;27.832;2023-03-03T09:20:03;99240.34;;;11.06;100.00
9717;BME280;4897;43.570;27.832;2023-03-03T09:22:38;99204.66;;;11.47;100.00
9717;BME280;4897;43.570;27.832;2023-03-03T09:25:13;99204.25;;;11.51;100.00
9717;BME280;4897;43.570;27.832;2023-03-03T09:27:46;99193.16;;;12.15;100.00
9717;BME280;4897;43.570;27.832;2023-03-03T09:30:29;99181.72;;;12.89;100.00
9717;BME280;4897;43.570;27.832;2023-03-03T09:33:01;99182.59;;;13.45;97.82
9717;BME280;4897;43.570;27.832;2023-03-03T09:35:42;99173.63;;;13.54;92.26
9717;BME280;4897;43.570;27.832;2023-03-03T09:38:27;99180.72;;;13.09;97.28
9717;BME280;4897;43.570;27.832;2023-03-03T09:41:21;99183.25;;;13.11;98.59
9717;BME280;4897;43.570;27.832;2023-03-03T09:44:11;99176.72;;;13.59;89.95
9717;BME280;4897;43.570;27.832;2023-03-03T09:46:51;99167.06;;;13.67;86.82
9717;BME280;4897;43.570;27.832;2023-03-03T09:49:29;99154.53;;;13.57;85.15
9717;BME280;4897;43.570;27.832;2023-03-03T09:52:05;99156.53;;;13.55;83.10
9717;BME280;4897;43.570;27.832;2023-03-03T09:54:50;99153.84;;;13.46;82.71
9717;BME280;4897;43.570;27.832;2023-03-03T09:57:24;99155.91;;;13.34;81.35
9717;BME280;4897;43.570;27.832;2023-03-03T10:00:13;99154.13;;;13.52;81.20
9717;BME280;4897;43.570;27.832;2023-03-03T10:02:52;99154.63;;;13.66;77.93
9717;BME280;4897;43.570;27.832;2023-03-03T10:05:33;99067.50;;;13.86;73.61
9717;BME280;4897;43.570;27.832;2023-03-03T10:08:20;99138.38;;;14.47;69.28
9717;BME280;4897;43.570;27.832;2023-03-03T10:11:07;99122.31;;;13.75;73.93
9717;BME280;4897;43.570;27.832;2023-03-03T10:13:47;99139.28;;;13.76;71.91
9717;BME280;4897;43.570;27.832;2023-03-03T10:16:29;99129.13;;;13.15;73.43
9717;BME280;4897;43.570;27.832;2023-03-03T10:19:02;99101.91;;;12.91;77.41
9717;BME280;4897;43.570;27.832;2023-03-03T10:21:34;99096.28;;;12.75;74.97
9717;BME280;4897;43.570;27.832;2023-03-03T10:24:11;99119.50;;;12.38;78.46
9717;BME280;4897;43.570;27.832;2023-03-03T10:27:01;99129.81;;;12.61;81.51
9717;BME280;4897;43.570;27.832;2023-03-03T10:29:35;99128.41;;;12.29;76.26
9717;BME280;4897;43.570;27.832;2023-03-03T10:32:28;99120.94;;;12.03;78.38
9717;BME280;4897;43.570;27.832;2023-03-03T10:38:22;99115.22;;;12.73;74.46
9717;BME280;4897;43.570;27.832;2023-03-03T10:40:55;99102.47;;;12.85;69.79
9717;BME280;4897;43.570;27.832;2023-03-03T10:43:48;99096.25;;;12.94;71.09
9717;BME280;4897;43.570;27.832;2023-03-03T10:46:31;99096.47;;;13.47;68.91
9717;BME280;4897;43.570;27.832;2023-03-03T10:49:21;99091.94;;;13.75;59.74
9717;BME280;4897;43.570;27.832;2023-03-03T10:52:05;99084.81;;;14.18;62.44
9717;BME280;4897;43.570;27.832;2023-03-03T10:54:47;99080.56;;;14.16;60.92
9717;BME280;4897;43.570;27.832;2023-03-03T10:57:24;99071.16;;;14.55;60.95
9717;BME280;4897;43.570;27.832;2023-03-03T11:00:05;99074.66;;;14.30;59.25
9717;BME280;4897;43.570;27.832;2023-03-03T11:02:48;99059.06;;;14.16;60.64
9717;BME280;4897;43.570;27.832;2023-03-03T11:05:28;99061.47;;;14.27;60.80
9717;BME280;4897;43.570;27.832;2023-03-03T11:08:01;99054.72;;;14.23;60.67
9717;BME280;4897;43.570;27.832;2023-03-03T11:10:37;99075.28;;;13.89;61.21
9717;BME280;4897;43.570;27.832;2023-03-03T11:13:14;99069.16;;;13.51;62.03
9717;BME280;4897;43.570;27.832;2023-03-03T11:15:59;99041.50;;;13.41;63.49
9717;BME280;4897;43.570;27.832;2023-03-03T11:18:41;99052.84;;;14.59;61.45
9717;BME280;4897;43.570;27.832;2023-03-03T11:21:20;99044.03;;;15.42;58.90
9717;BME280;4897;43.570;27.832;2023-03-03T11:23:54;99040.97;;;15.78;55.89
9717;BME280;4897;43.570;27.832;2023-03-03T11:26:33;99038.59;;;16.80;51.11
9717;BME280;4897;43.570;27.832;2023-03-03T11:29:23;99020.25;;;16.11;53.12
9717;BME280;4897;43.570;27.832;2023-03-03T11:31:56;99019.81;;;17.03;50.70
9717;BME280;4897;43.570;27.832;2023-03-03T11:34:38;99003.00;;;18.96;48.57
9717;BME280;4897;43.570;27.832;2023-03-03T11:37:15;99004.50;;;20.63;41.59
9717;BME280;4897;43.570;27.832;2023-03-03T11:39:43;98965.66;;;21.37;40.68
9717;BME280;4897;43.570;27.832;2023-03-03T11:42:18;98966.91;;;22.54;38.12
9717;BME280;4897;43.570;27.832;2023-03-03T11:44:50;98985.34;;;22.91;37.01
9717;BME280;4897;43.570;27.832;2023-03-03T11:47:23;98988.72;;;22.48;36.66
9717;BME280;4897;43.570;27.832;2023-03-03T11:49:56;98987.81;;;22.99;36.87
9717;BME280;4897;43.570;27.832;2023-03-03T11:52:33;98990.31;;;23.08;36.70
9717;BME280;4897;43.570;27.832;2023-03-03T11:55:09;98981.00;;;23.48;35.89
9717;BME280;4897;43.570;27.832;2023-03-03T11:57:41;98972.78;;;22.77;36.21
9717;BME280;4897;43.570;27.832;2023-03-03T12:00:22;98982.69;;;21.66;37.73
9717;BME280;4897;43.570;27.832;2023-03-03T12:03:06;98979.28;;;22.76;36.25
9717;BME280;4897;43.570;27.832;2023-03-03T12:05:49;98979.72;;;22.73;35.60
9717;BME280;4897;43.570;27.832;2023-03-03T12:08:31;98983.97;;;20.33;39.29
9717;BME280;4897;43.570;27.832;2023-03-03T12:11:07;98983.09;;;19.48;41.14
9717;BME280;4897;43.570;27.832;2023-03-03T12:13:48;98988.53;;;19.19;42.85
9717;BME280;4897;43.570;27.832;2023-03-03T12:16:28;98985.19;;;18.87;42.72
9717;BME280;4897;43.570;27.832;2023-03-03T12:19:34;98982.38;;;18.29;44.24
9717;BME280;4897;43.570;27.832;2023-03-03T12:22:30;98982.81;;;17.95;45.73
9717;BME280;4897;43.570;27.832;2023-03-03T12:25:08;98984.16;;;17.99;45.31
9717;BME280;4897;43.570;27.832;2023-03-03T12:27:41;98953.91;;;18.33;46.41
9717;BME280;4897;43.570;27.832;2023-03-03T12:30:16;98965.81;;;19.20;44.30
9717;BME280;4897;43.570;27.832;2023-03-03T12:35:42;98970.03;;;18.93;44.03
9717;BME280;4897;43.570;27.832;2023-03-03T12:38:24;98969.53;;;17.86;46.20
9717;BME280;4897;43.570;27.832;2023-03-03T12:41:00;98959.22;;;16.26;50.06
9717;BME280;4897;43.570;27.832;2023-03-03T12:43:42;98977.06;;;15.71;53.50
9717;BME280;4897;43.570;27.832;2023-03-03T12:46:18;98978.75;;;15.48;56.91
9717;BME280;4897;43.570;27.832;2023-03-03T12:48:46;98976.72;;;14.66;60.07
9717;BME280;4897;43.570;27.832;2023-03-03T12:51:21;98951.00;;;14.38;64.28
9717;BME280;4897;43.570;27.832;2023-03-03T12:54:06;98984.41;;;14.10;69.58
9717;BME280;4897;43.570;27.832;2023-03-03T12:56:40;98911.50;;;13.52;70.75
9717;BME280;4897;43.570;27.832;2023-03-03T12:59:13;98990.69;;;13.83;76.27
9717;BME280;4897;43.570;27.832;2023-03-03T13:01:55;98952.88;;;13.59;76.59
9717;BME280;4897;43.570;27.832;2023-03-03T13:04:33;98953.78;;;13.50;74.15
9717;BME280;4897;43.570;27.832;2023-03-03T13:07:09;98990.72;;;13.66;78.73
9717;BME280;4897;43.570;27.832;2023-03-03T13:09:55;98997.63;;;13.06;80.37
9717;BME280;4897;43.570;27.832;2023-03-03T13:12:39;98984.72;;;12.82;80.36
9717;BME280;4897;43.570;27.832;2023-03-03T13:15:13;98989.88;;;12.66;84.84
9717;BME280;4897;43.570;27.832;2023-03-03T13:17:49;98985.66;;;12.54;88.93
9717;BME280;4897;43.570;27.832;2023-03-03T13:20:24;98985.97;;;12.51;84.97
9717;BME280;4897;43.570;27.832;2023-03-03T13:23:04;98909.41;;;11.73;83.73
9717;BME280;4897;43.570;27.832;2023-03-03T13:25:48;98985.25;;;12.02;87.89
9717;BME280;4897;43.570;27.832;2023-03-03T13:28:26;98959.16;;;11.95;90.89
9717;BME280;4897;43.570;27.832;2023-03-03T13:30:59;98973.38;;;12.61;84.13
9717;BME280;4897;43.570;27.832;2023-03-03T13:33:29;98960.75;;;12.98;77.56
9717;BME280;4897;43.570;27.832;2023-03-03T13:36:01;98972.03;;;13.11;71.25
9717;BME280;4897;43.570;27.832;2023-03-03T13:38:33;98970.34;;;13.01;74.49
9717;BME280;4897;43.570;27.832;2023-03-03T13:41:06;98940.75;;;12.56;78.47
9717;BME280;4897;43.570;27.832;2023-03-03T13:43:42;98956.13;;;12.63;80.10
9717;BME280;4897;43.570;27.832;2023-03-03T13:46:16;98949.81;;;12.55;83.55